Time;durP1;ratioP1;P1;durP2;ratioP2;P2;SDS_P1;SDS_P2;PMS_P1;PMS_P2;Temp;Humidity;BMP_temperature;BMP_pressure;BME280_temperature;BME280_humidity;BME280_pressure;Samples;Min_cycle;Max_cycle;Signal;HPM_P1;HPM_P2
2022/05/28 00:01:24;;;;;;;18.17;11.40;;;;;;;;;;4994457;28;20493;-72
2022/05/28 00:03:54;;;;;;;14.63;10.77;;;;;;;;;;4994479;28;20129;-72
2022/05/28 00:06:24;;;;;;;19.23;11.73;;;;;;;;;;4994278;28;20394;-72
2022/05/28 00:08:56;;;;;;;16.88;11.70;;;;;;;;;;4978069;28;20133;-72
2022/05/28 00:11:29;;;;;;;16.98;11.32;;;;;;;;;;4994115;28;20597;-72
2022/05/28 00:14:00;;;;;;;18.50;10.65;;;;;;;;;;4994431;28;20413;-72
2022/05/28 00:16:29;;;;;;;18.90;10.18;;;;;;;;;;4994420;28;20050;-72
2022/05/28 00:18:59;;;;;;;21.33;10.15;;;;;;;;;;4994092;28;20540;-72
2022/05/28 00:21:29;;;;;;;18.08;10.25;;;;;;;;;;4994526;28;20050;-72
2022/05/28 00:23:59;;;;;;;17.23;9.82;;;;;;;;;;4994363;28;20062;-72
2022/05/28 00:26:29;;;;;;;20.52;13.02;;;;;;;;;;4994482;28;20054;-72
2022/05/28 00:28:58;;;;;;;18.20;11.45;;;;;;;;;;4994510;28;20077;-72
2022/05/28 00:31:28;;;;;;;16.90;10.75;;;;;;;;;;4994352;28;20046;-72
2022/05/28 00:33:58;;;;;;;14.57;11.40;;;;;;;;;;4992984;28;20638;-72
2022/05/28 00:36:27;;;;;;;22.35;10.68;;;;;;;;;;4994156;28;20073;-72
2022/05/28 00:39:00;;;;;;;14.68;10.75;;;;;;;;;;4994472;28;20489;-72
2022/05/28 00:41:34;;;;;;;13.77;10.65;;;;;;;;;;4993502;28;20398;-72
2022/05/28 00:44:06;;;;;;;17.70;11.23;;;;;;;;;;4994084;28;20061;-72
2022/05/28 00:46:35;;;;;;;13.40;10.77;;;;;;;;;;4993962;28;20050;-72
2022/05/28 00:49:07;;;;;;;16.15;10.20;;;;;;;;;;4993973;28;20480;-72
2022/05/28 00:51:43;;;;;;;12.70;9.77;;;;;;;;;;4992700;28;20047;-73
2022/05/28 00:54:14;;;;;;;24.07;10.23;;;;;;;;;;4994254;28;20101;-72
2022/05/28 00:56:43;;;;;;;15.70;10.13;;;;;;;;;;4993629;28;20073;-72
2022/05/28 00:59:12;;;;;;;19.00;10.32;;;;;;;;;;4994300;28;20050;-72
2022/05/28 01:01:41;;;;;;;16.70;9.30;;;;;;;;;;4993796;28;20077;-72
2022/05/28 01:04:51;;;;;;;19.27;10.52;;;;;;;;;;4977199;28;20413;-72
2022/05/28 01:07:29;;;;;;;16.80;9.65;;;;;;;;;;4933468;29;20106;-72
2022/05/28 01:10:32;;;;;;;16.50;10.98;;;;;;;;;;4951107;28;20130;-72
2022/05/28 01:13:13;;;;;;;17.30;10.10;;;;;;;;;;4991597;28;20053;-72
2022/05/28 01:15:53;;;;;;;19.55;10.88;;;;;;;;;;4977169;28;20074;-73
2022/05/28 01:19:01;;;;;;;18.67;10.23;;;;;;;;;;4993990;28;20061;-72
2022/05/28 01:21:47;;;;;;;17.35;9.98;;;;;;;;;;4991627;28;20047;-72
2022/05/28 01:24:26;;;;;;;16.27;9.07;;;;;;;;;;4993402;28;20460;-72
2022/05/28 01:27:00;;;;;;;15.90;9.35;;;;;;;;;;4993716;28;20525;-72
2022/05/28 01:29:35;;;;;;;18.48;9.93;;;;;;;;;;4976680;28;20497;-72
2022/05/28 01:32:04;;;;;;;22.38;8.23;;;;;;;;;;4976823;28;20050;-72
2022/05/28 01:34:34;;;;;;;19.50;9.27;;;;;;;;;;4976819;28;20061;-72
2022/05/28 01:37:05;;;;;;;23.90;9.20;;;;;;;;;;4976596;28;20099;-72
2022/05/28 01:39:35;;;;;;;19.88;10.52;;;;;;;;;;4994025;28;20078;-72
2022/05/28 01:42:06;;;;;;;15.00;8.60;;;;;;;;;;4976518;28;20097;-72
2022/05/28 01:44:38;;;;;;;17.80;8.07;;;;;;;;;;4993692;28;20452;-72
2022/05/28 01:47:08;;;;;;;16.33;7.95;;;;;;;;;;4993176;28;20145;-72
2022/05/28 01:49:38;;;;;;;13.40;7.40;;;;;;;;;;4976900;28;20077;-72
2022/05/28 01:52:09;;;;;;;17.02;7.95;;;;;;;;;;4994943;28;20061;-72
2022/05/28 01:54:40;;;;;;;27.25;7.20;;;;;;;;;;4996782;28;20058;-72
2022/05/28 01:57:12;;;;;;;13.27;7.32;;;;;;;;;;4996938;28;20141;-73
2022/05/28 01:59:43;;;;;;;17.45;7.50;;;;;;;;;;4997017;28;20066;-72
2022/05/28 02:02:13;;;;;;;16.83;6.97;;;;;;;;;;4996802;28;20470;-72
2022/05/28 02:04:45;;;;;;;14.80;7.07;;;;;;;;;;4979500;28;20390;-71
2022/05/28 02:07:16;;;;;;;14.45;6.80;;;;;;;;;;4997301;28;20050;-72
2022/05/28 02:09:53;;;;;;;17.63;7.60;;;;;;;;;;4996343;28;20065;-72
2022/05/28 02:12:34;;;;;;;21.02;9.30;;;;;;;;;;4997139;28;20050;-72
2022/05/28 02:15:17;;;;;;;17.52;7.10;;;;;;;;;;4996752;28;20054;-72
2022/05/28 02:17:50;;;;;;;19.23;7.75;;;;;;;;;;4997418;28;20043;-72
2022/05/28 02:20:42;;;;;;;19.35;7.28;;;;;;;;;;4979133;28;20058;-71
2022/05/28 02:23:23;;;;;;;16.98;9.13;;;;;;;;;;4996752;28;20054;-71
2022/05/28 02:25:59;;;;;;;16.30;7.07;;;;;;;;;;4996364;28;20520;-71
2022/05/28 02:28:29;;;;;;;18.88;7.90;;;;;;;;;;4996647;28;20055;-71
2022/05/28 02:31:03;;;;;;;25.95;8.45;;;;;;;;;;4979700;28;20054;-72
2022/05/28 02:33:32;;;;;;;20.77;13.35;;;;;;;;;;4996024;28;20050;-72
2022/05/28 02:36:03;;;;;;;25.30;11.50;;;;;;;;;;4996638;28;20046;-71
2022/05/28 02:38:34;;;;;;;22.83;13.57;;;;;;;;;;4996372;28;20056;-71
2022/05/28 02:41:04;;;;;;;19.30;12.82;;;;;;;;;;4996596;28;20050;-72
2022/05/28 02:43:36;;;;;;;22.05;14.00;;;;;;;;;;4996246;28;20493;-71
2022/05/28 02:46:07;;;;;;;20.23;12.82;;;;;;;;;;4996216;28;20413;-71
2022/05/28 02:48:39;;;;;;;22.27;15.32;;;;;;;;;;4995629;28;20085;-71
2022/05/28 02:51:31;;;;;;;22.77;16.52;;;;;;;;;;4996095;28;20049;-71
2022/05/28 02:54:01;;;;;;;22.05;11.82;;;;;;;;;;4995795;28;20129;-71
2022/05/28 02:56:30;;;;;;;21.83;12.07;;;;;;;;;;4996159;28;20050;-71
2022/05/28 02:59:00;;;;;;;25.73;13.95;;;;;;;;;;4995950;28;20137;-72
2022/05/28 03:01:34;;;;;;;28.15;13.35;;;;;;;;;;4995444;28;20077;-71
2022/05/28 03:04:05;;;;;;;24.02;13.32;;;;;;;;;;4995533;28;20108;-71
2022/05/28 03:06:36;;;;;;;25.30;13.18;;;;;;;;;;4978882;28;20564;-71
2022/05/28 03:09:07;;;;;;;21.58;12.52;;;;;;;;;;4995877;28;20077;-72
2022/05/28 03:11:36;;;;;;;23.42;15.18;;;;;;;;;;4995277;28;20098;-71
2022/05/28 03:14:05;;;;;;;29.23;14.60;;;;;;;;;;4995835;28;20413;-72
2022/05/28 03:16:34;;;;;;;32.35;16.63;;;;;;;;;;4994981;28;20050;-72
2022/05/28 03:19:04;;;;;;;25.10;14.23;;;;;;;;;;4995458;28;20564;-72
2022/05/28 03:21:33;;;;;;;20.23;13.13;;;;;;;;;;4995611;28;20575;-72
2022/05/28 03:24:06;;;;;;;23.35;14.07;;;;;;;;;;4995275;28;20046;-71
2022/05/28 03:26:38;;;;;;;22.92;14.52;;;;;;;;;;4995617;28;20057;-72
2022/05/28 03:29:07;;;;;;;26.67;15.50;;;;;;;;;;4994999;28;20497;-71
2022/05/28 03:31:36;;;;;;;30.27;15.60;;;;;;;;;;4995199;28;20107;-71
2022/05/28 03:34:06;;;;;;;31.08;14.75;;;;;;;;;;4995215;28;20046;-72
2022/05/28 03:36:37;;;;;;;22.90;16.02;;;;;;;;;;4995425;28;20081;-72
2022/05/28 03:39:07;;;;;;;22.95;14.65;;;;;;;;;;4995040;28;20154;-72
2022/05/28 03:41:36;;;;;;;29.27;16.55;;;;;;;;;;4994970;28;20042;-72
2022/05/28 03:44:08;;;;;;;28.45;16.83;;;;;;;;;;4994785;28;20464;-71
2022/05/28 03:46:37;;;;;;;20.40;14.75;;;;;;;;;;4995026;28;20505;-72
2022/05/28 03:49:45;;;;;;;22.08;14.73;;;;;;;;;;4995242;28;20138;-72
2022/05/28 03:52:14;;;;;;;26.25;13.65;;;;;;;;;;4977622;28;20053;-72
2022/05/28 03:54:45;;;;;;;21.13;12.27;;;;;;;;;;4995051;28;20117;-71
2022/05/28 03:57:21;;;;;;;24.67;12.02;;;;;;;;;;4994523;28;20129;-71
2022/05/28 03:59:53;;;;;;;21.17;10.40;;;;;;;;;;4994990;28;20064;-72
2022/05/28 04:02:24;;;;;;;18.73;9.68;;;;;;;;;;4994576;28;20050;-70
2022/05/28 04:04:54;;;;;;;19.70;9.23;;;;;;;;;;4994538;28;20051;-72
2022/05/28 04:07:24;;;;;;;20.88;10.75;;;;;;;;;;4994826;28;20113;-72
2022/05/28 04:09:54;;;;;;;19.10;8.00;;;;;;;;;;4995089;28;20058;-72
2022/05/28 04:12:24;;;;;;;14.07;8.27;;;;;;;;;;4994274;28;20050;-72
2022/05/28 04:14:54;;;;;;;27.10;7.82;;;;;;;;;;4993681;28;20073;-72
2022/05/28 04:17:23;;;;;;;15.90;7.40;;;;;;;;;;4994500;28;20057;-72
2022/05/28 04:19:53;;;;;;;22.23;8.60;;;;;;;;;;4994699;28;20109;-71
2022/05/28 04:22:23;;;;;;;16.33;8.07;;;;;;;;;;4994200;28;20421;-71
2022/05/28 04:24:52;;;;;;;22.98;8.02;;;;;;;;;;4955590;28;20047;-72
2022/05/28 04:27:21;;;;;;;16.92;6.88;;;;;;;;;;4954602;28;20506;-71
2022/05/28 04:29:51;;;;;;;12.82;7.20;;;;;;;;;;4955287;28;20051;-71
2022/05/28 04:32:22;;;;;;;19.40;8.32;;;;;;;;;;4955485;28;20085;-72
2022/05/28 04:34:51;;;;;;;16.00;8.27;;;;;;;;;;4955325;28;20520;-71
2022/05/28 04:37:22;;;;;;;17.65;7.30;;;;;;;;;;4955815;28;20050;-71
2022/05/28 04:39:51;;;;;;;14.57;5.53;;;;;;;;;;4956036;28;20055;-71
2022/05/28 04:42:21;;;;;;;14.63;6.38;;;;;;;;;;4955427;28;20109;-72
2022/05/28 04:44:51;;;;;;;23.67;7.40;;;;;;;;;;4955906;28;20130;-71
2022/05/28 04:47:21;;;;;;;20.20;6.18;;;;;;;;;;4955679;28;20058;-71
2022/05/28 04:49:51;;;;;;;19.63;6.30;;;;;;;;;;4955676;28;20051;-72
2022/05/28 04:52:22;;;;;;;15.43;5.32;;;;;;;;;;4955131;28;20098;-74
2022/05/28 04:54:52;;;;;;;11.10;5.72;;;;;;;;;;4954499;28;20101;-75
2022/05/28 04:57:21;;;;;;;18.75;6.13;;;;;;;;;;4954487;28;20047;-76
2022/05/28 04:59:50;;;;;;;27.95;6.35;;;;;;;;;;4953715;28;20073;-71
2022/05/28 05:02:20;;;;;;;17.80;5.00;;;;;;;;;;4955273;29;20053;-72
2022/05/28 05:04:57;;;;;;;13.32;6.00;;;;;;;;;;4954363;28;20051;-72
2022/05/28 05:07:26;;;;;;;15.85;6.82;;;;;;;;;;4953648;28;20047;-71
2022/05/28 05:09:55;;;;;;;13.38;5.65;;;;;;;;;;4953286;29;20070;-75
2022/05/28 05:12:25;;;;;;;16.08;7.10;;;;;;;;;;4954333;28;20071;-71
2022/05/28 05:14:55;;;;;;;14.00;5.38;;;;;;;;;;4953677;28;20142;-73
2022/05/28 05:17:24;;;;;;;17.00;6.70;;;;;;;;;;4953817;29;20075;-71
2022/05/28 05:19:54;;;;;;;17.02;6.00;;;;;;;;;;4952855;28;20066;-71
2022/05/28 05:22:23;;;;;;;24.17;6.03;;;;;;;;;;4953731;28;20491;-72
2022/05/28 05:24:54;;;;;;;13.15;6.35;;;;;;;;;;4951694;29;20063;-71
2022/05/28 05:27:23;;;;;;;14.52;5.82;;;;;;;;;;4954945;28;20148;-71
2022/05/28 05:29:57;;;;;;;18.83;7.53;;;;;;;;;;4954941;29;20125;-72
2022/05/28 05:32:28;;;;;;;15.23;7.45;;;;;;;;;;4956133;29;20375;-72
2022/05/28 05:34:57;;;;;;;19.92;6.57;;;;;;;;;;4956093;29;20054;-72
2022/05/28 05:37:28;;;;;;;20.52;6.90;;;;;;;;;;4954965;28;20051;-73
2022/05/28 05:39:58;;;;;;;18.33;7.22;;;;;;;;;;4955961;29;20066;-73
2022/05/28 05:42:28;;;;;;;12.77;6.00;;;;;;;;;;4957688;29;20062;-70
2022/05/28 05:44:56;;;;;;;13.73;6.57;;;;;;;;;;4957496;28;20450;-71
2022/05/28 05:47:26;;;;;;;20.92;7.22;;;;;;;;;;4956034;28;20039;-68
2022/05/28 05:49:56;;;;;;;20.85;7.57;;;;;;;;;;4956732;29;20082;-69
2022/05/28 05:52:25;;;;;;;25.50;9.27;;;;;;;;;;4956855;28;20102;-68
2022/05/28 05:54:55;;;;;;;24.75;6.78;;;;;;;;;;4956587;29;20052;-69
2022/05/28 05:57:26;;;;;;;15.05;5.28;;;;;;;;;;4955422;28;20058;-69
2022/05/28 05:59:57;;;;;;;22.48;7.30;;;;;;;;;;4955596;29;20058;-69
2022/05/28 06:02:26;;;;;;;20.88;8.68;;;;;;;;;;4956387;29;20118;-69
2022/05/28 06:04:58;;;;;;;19.70;7.82;;;;;;;;;;4955677;28;20057;-69
2022/05/28 06:07:28;;;;;;;16.42;7.13;;;;;;;;;;4954845;28;20047;-69
2022/05/28 06:09:56;;;;;;;14.40;7.25;;;;;;;;;;4954921;28;20121;-69
2022/05/28 06:12:26;;;;;;;21.50;7.50;;;;;;;;;;4955533;28;20047;-69
2022/05/28 06:14:56;;;;;;;24.23;10.38;;;;;;;;;;4955652;28;20464;-70
2022/05/28 06:17:25;;;;;;;22.13;9.50;;;;;;;;;;4955741;29;20055;-70
2022/05/28 06:19:56;;;;;;;17.73;8.85;;;;;;;;;;4956701;29;20054;-69
2022/05/28 06:22:25;;;;;;;20.35;7.05;;;;;;;;;;4957575;29;20059;-70
2022/05/28 06:24:56;;;;;;;22.15;8.32;;;;;;;;;;4958021;28;20062;-69
2022/05/28 06:27:25;;;;;;;15.63;8.73;;;;;;;;;;4957499;29;20137;-69
2022/05/28 06:29:54;;;;;;;24.75;8.88;;;;;;;;;;4957945;28;20122;-69
2022/05/28 06:32:23;;;;;;;17.52;8.23;;;;;;;;;;4957857;28;20430;-69
2022/05/28 06:34:55;;;;;;;20.50;8.88;;;;;;;;;;4957294;29;20485;-70
2022/05/28 06:37:25;;;;;;;27.25;8.95;;;;;;;;;;4956981;28;20055;-70
2022/05/28 06:39:54;;;;;;;22.50;8.43;;;;;;;;;;4956970;28;20059;-70
2022/05/28 06:42:24;;;;;;;23.77;10.35;;;;;;;;;;4957414;28;20047;-70
2022/05/28 06:44:55;;;;;;;20.05;9.80;;;;;;;;;;4957119;29;20411;-70
2022/05/28 06:47:25;;;;;;;28.15;13.30;;;;;;;;;;4957702;29;20055;-70
2022/05/28 06:52:41;;;;;;;27.05;15.88;;;;;;;;;;4957184;28;20058;-70
2022/05/28 06:55:13;;;;;;;29.73;18.27;;;;;;;;;;4957396;28;20446;-70
2022/05/28 06:57:42;;;;;;;38.72;18.92;;;;;;;;;;4956968;28;20482;-70
2022/05/28 07:00:14;;;;;;;34.25;18.75;;;;;;;;;;4957349;28;20051;-70
2022/05/28 07:02:44;;;;;;;40.13;19.15;;;;;;;;;;4956953;28;20058;-70
2022/05/28 07:05:15;;;;;;;35.67;16.63;;;;;;;;;;4957266;28;20055;-69
2022/05/28 07:07:44;;;;;;;33.97;17.02;;;;;;;;;;4956546;28;20051;-70
2022/05/28 07:10:14;;;;;;;28.55;15.40;;;;;;;;;;4957386;29;20047;-70
2022/05/28 07:12:45;;;;;;;24.23;15.65;;;;;;;;;;4956800;29;20047;-72
2022/05/28 07:15:14;;;;;;;20.73;14.73;;;;;;;;;;4956168;28;20054;-71
2022/05/28 07:17:44;;;;;;;25.50;16.77;;;;;;;;;;4956720;29;20082;-71
2022/05/28 07:20:13;;;;;;;23.48;16.85;;;;;;;;;;4955778;29;20058;-69
2022/05/28 07:22:44;;;;;;;21.48;16.15;;;;;;;;;;4961123;28;20487;-71
2022/05/28 07:25:13;;;;;;;29.30;17.90;;;;;;;;;;4995404;28;20112;-70
2022/05/28 07:27:44;;;;;;;28.73;17.65;;;;;;;;;;4995456;28;20050;-66
2022/05/28 07:30:14;;;;;;;22.58;14.02;;;;;;;;;;4994475;28;20054;-72
2022/05/28 07:32:44;;;;;;;24.45;17.50;;;;;;;;;;4994714;28;20055;-70
2022/05/28 07:35:15;;;;;;;27.48;17.08;;;;;;;;;;4994891;28;20445;-69
2022/05/28 07:37:44;;;;;;;23.30;16.35;;;;;;;;;;4995022;28;20101;-70
2022/05/28 07:40:15;;;;;;;32.33;18.33;;;;;;;;;;4995204;28;20474;-71
2022/05/28 07:42:45;;;;;;;20.75;15.38;;;;;;;;;;4994229;28;20077;-69
2022/05/28 07:45:21;;;;;;;24.27;17.30;;;;;;;;;;4995264;28;20061;-69
2022/05/28 07:47:51;;;;;;;24.45;15.77;;;;;;;;;;4994630;28;20505;-71
2022/05/28 07:50:21;;;;;;;26.13;16.45;;;;;;;;;;4985471;28;20401;-70
2022/05/28 07:52:50;;;;;;;25.92;16.52;;;;;;;;;;4993752;28;20057;-70
2022/05/28 07:55:21;;;;;;;27.27;17.10;;;;;;;;;;4993317;28;20101;-70
2022/05/28 07:57:51;;;;;;;27.63;17.15;;;;;;;;;;4994185;28;20097;-70
2022/05/28 08:00:21;;;;;;;26.20;17.60;;;;;;;;;;4994466;28;20398;-70
2022/05/28 08:02:51;;;;;;;27.33;16.50;;;;;;;;;;4994326;28;20100;-70
2022/05/28 08:05:22;;;;;;;24.50;16.88;;;;;;;;;;4993831;28;20042;-70
2022/05/28 08:07:51;;;;;;;29.00;19.08;;;;;;;;;;4992734;28;20097;-70
2022/05/28 08:10:23;;;;;;;27.08;16.67;;;;;;;;;;4992401;28;20054;-70
2022/05/28 08:13:02;;;;;;;32.05;21.88;;;;;;;;;;4992691;28;20065;-70
2022/05/28 08:15:32;;;;;;;26.30;16.60;;;;;;;;;;4975537;28;20050;-69
2022/05/28 08:18:04;;;;;;;33.45;20.58;;;;;;;;;;4992840;28;20625;-70
2022/05/28 08:23:21;;;;;;;21.23;15.30;;;;;;;;;;4994010;28;20062;-70
2022/05/28 08:25:55;;;;;;;19.63;13.98;;;;;;;;;;4994197;28;20061;-70
2022/05/28 08:28:25;;;;;;;19.95;12.20;;;;;;;;;;4994392;28;20069;-70
2022/05/28 08:30:55;;;;;;;24.23;12.98;;;;;;;;;;4994325;28;20133;-70
2022/05/28 08:33:25;;;;;;;24.48;13.27;;;;;;;;;;4994015;28;20177;-70
2022/05/28 08:35:56;;;;;;;17.42;12.15;;;;;;;;;;4994080;28;20556;-70
2022/05/28 08:38:26;;;;;;;22.50;10.85;;;;;;;;;;4976934;28;20058;-70
2022/05/28 08:40:58;;;;;;;19.83;11.20;;;;;;;;;;4994099;28;20111;-70
2022/05/28 08:44:05;;;;;;;19.13;11.15;;;;;;;;;;4993341;28;20061;-70
2022/05/28 08:46:37;;;;;;;21.33;11.77;;;;;;;;;;4993698;28;20137;-70
2022/05/28 08:49:10;;;;;;;20.02;10.88;;;;;;;;;;4993870;28;20047;-70
2022/05/28 08:51:50;;;;;;;23.38;10.93;;;;;;;;;;4976906;28;20054;-70
2022/05/28 08:54:39;;;;;;;20.50;9.90;;;;;;;;;;4994088;28;20047;-70
2022/05/28 08:57:17;;;;;;;20.48;11.20;;;;;;;;;;4994063;28;20050;-70
2022/05/28 08:59:53;;;;;;;16.85;9.18;;;;;;;;;;4994163;28;20050;-71
2022/05/28 09:02:46;;;;;;;21.40;10.15;;;;;;;;;;4980047;28;20105;-70
2022/05/28 09:05:26;;;;;;;;;;;;;;;;;;4998564;28;20113;-71
2022/05/28 09:08:03;;;;;;;14.55;9.38;;;;;;;;;;4981174;28;19921;-70
2022/05/28 09:10:37;;;;;;;16.17;10.20;;;;;;;;;;4998036;28;20559;-71
2022/05/28 09:13:07;;;;;;;;;;;;;;;;;;4997155;28;20051;-71
2022/05/28 09:15:37;;;;;;;14.57;8.13;;;;;;;;;;4997540;28;19928;-71
2022/05/28 09:18:09;;;;;;;16.00;8.82;;;;;;;;;;4997638;28;20042;-70
2022/05/28 09:20:43;;;;;;;19.45;9.25;;;;;;;;;;4997766;28;20061;-71
2022/05/28 09:23:13;;;;;;;21.67;8.52;;;;;;;;;;4997175;28;20062;-71
2022/05/28 09:25:46;;;;;;;15.05;8.75;;;;;;;;;;4997629;28;20509;-70
2022/05/28 09:29:03;;;;;;;16.98;9.23;;;;;;;;;;4997216;28;20050;-70
2022/05/28 09:31:55;;;;;;;19.90;7.10;;;;;;;;;;4980567;28;20390;-71
2022/05/28 09:34:35;;;;;;;18.73;8.60;;;;;;;;;;4997452;28;20077;-71
2022/05/28 09:37:22;;;;;;;15.90;8.38;;;;;;;;;;4997495;28;20134;-71
2022/05/28 09:39:59;;;;;;;18.33;9.43;;;;;;;;;;4997195;28;20042;-71
2022/05/28 09:42:40;;;;;;;23.55;8.27;;;;;;;;;;4980449;28;20076;-71
2022/05/28 09:46:02;;;;;;;22.00;9.13;;;;;;;;;;4996861;28;20567;-71
2022/05/28 09:48:32;;;;;;;18.50;8.48;;;;;;;;;;4950105;28;20058;-71
2022/05/28 09:51:01;;;;;;;17.33;10.25;;;;;;;;;;4996759;28;20593;-71
2022/05/28 09:56:22;;;;;;;20.02;9.45;;;;;;;;;;4996624;28;20053;-71
2022/05/28 09:58:52;;;;;;;21.85;8.88;;;;;;;;;;4980086;28;20050;-71
2022/05/28 10:01:24;;;;;;;26.10;10.23;;;;;;;;;;4996855;28;20604;-71
2022/05/28 10:06:53;;;;;;;23.58;10.05;;;;;;;;;;4997230;28;20050;-71
2022/05/28 10:09:23;;;;;;;25.30;8.85;;;;;;;;;;4979749;28;20072;-71
2022/05/28 10:12:01;;;;;;;21.05;10.50;;;;;;;;;;4996442;28;20061;-71
2022/05/28 10:14:32;;;;;;;14.40;9.10;;;;;;;;;;4979376;28;20050;-71
2022/05/28 10:17:03;;;;;;;10.18;7.57;;;;;;;;;;4997133;28;20078;-71
2022/05/28 10:19:39;;;;;;;17.08;9.85;;;;;;;;;;4996637;28;20057;-70
2022/05/28 10:22:15;;;;;;;16.25;9.32;;;;;;;;;;4979535;28;20058;-70
2022/05/28 10:24:47;;;;;;;17.45;7.90;;;;;;;;;;4995057;28;20505;-70
2022/05/28 10:27:38;;;;;;;17.52;7.10;;;;;;;;;;4996864;28;20046;-70
2022/05/28 10:30:09;;;;;;;14.70;8.40;;;;;;;;;;4995885;28;20108;-70
2022/05/28 10:32:46;;;;;;;15.18;8.23;;;;;;;;;;4995421;28;20129;-71
2022/05/28 10:35:21;;;;;;;11.80;7.55;;;;;;;;;;4996163;28;20441;-71
2022/05/28 10:37:49;;;;;;;;;;;;;;;;;;4979982;28;20052;-71
2022/05/28 10:40:24;;;;;;;18.33;6.50;;;;;;;;;;4996318;28;19922;-70
2022/05/28 10:42:58;;;;;;;19.65;8.23;;;;;;;;;;4996292;28;20062;-70
2022/05/28 10:45:34;;;;;;;11.40;7.28;;;;;;;;;;4996762;28;20047;-70
2022/05/28 10:48:14;;;;;;;16.77;6.43;;;;;;;;;;4979277;28;20050;-70
2022/05/28 10:50:59;;;;;;;11.55;5.80;;;;;;;;;;4995961;28;20485;-70
2022/05/28 10:53:41;;;;;;;13.18;5.82;;;;;;;;;;4996110;28;20050;-70
2022/05/28 10:57:08;;;;;;;12.45;6.38;;;;;;;;;;4996144;28;20057;-70
2022/05/28 10:59:43;;;;;;;9.48;5.50;;;;;;;;;;4916961;29;20052;-70
2022/05/28 11:02:37;;;;;;;14.85;4.70;;;;;;;;;;4916981;29;20048;-70
2022/05/28 11:05:07;;;;;;;15.43;5.22;;;;;;;;;;4981382;28;20441;-70
2022/05/28 11:08:03;;;;;;;7.38;4.30;;;;;;;;;;4995777;28;20058;-70
2022/05/28 11:10:50;;;;;;;9.20;5.00;;;;;;;;;;4995363;28;20050;-70
2022/05/28 11:13:41;;;;;;;15.57;6.25;;;;;;;;;;4995591;28;20058;-70
2022/05/28 11:16:38;;;;;;;10.50;5.28;;;;;;;;;;4995191;28;20104;-70
2022/05/28 11:19:25;;;;;;;11.57;4.50;;;;;;;;;;4994414;28;20046;-70
2022/05/28 11:22:12;;;;;;;11.25;4.40;;;;;;;;;;4994876;28;20073;-71
2022/05/28 11:24:41;;;;;;;16.42;5.38;;;;;;;;;;4992992;28;20112;-70
2022/05/28 11:27:29;;;;;;;15.68;5.00;;;;;;;;;;4994735;28;20122;-71
2022/05/28 11:30:23;;;;;;;13.85;5.10;;;;;;;;;;4994640;28;20104;-70
2022/05/28 11:33:17;;;;;;;11.68;4.43;;;;;;;;;;4994266;28;20089;-70
2022/05/28 11:35:50;;;;;;;;;;;;;;;;;;4995176;28;20052;-69
2022/05/28 11:38:32;;;;;;;18.90;4.80;;;;;;;;;;4994160;28;19922;-70
2022/05/28 11:41:10;;;;;;;9.30;4.35;;;;;;;;;;4975436;28;20400;-71
2022/05/28 11:44:06;;;;;;;13.52;5.15;;;;;;;;;;4993363;28;20105;-71
2022/05/28 11:47:12;;;;;;;13.15;3.90;;;;;;;;;;4993811;28;20054;-73
2022/05/28 11:53:11;;;;;;;11.98;5.25;;;;;;;;;;4979911;28;20096;-71
2022/05/28 11:55:42;;;;;;;12.77;4.57;;;;;;;;;;4988005;28;20498;-71
2022/05/28 11:58:39;;;;;;;11.95;4.45;;;;;;;;;;4994227;28;20050;-70
2022/05/28 12:01:12;;;;;;;10.88;4.10;;;;;;;;;;4975763;28;20054;-70
2022/05/28 12:03:44;;;;;;;13.65;4.55;;;;;;;;;;4977936;28;20137;-71
2022/05/28 12:06:16;;;;;;;19.83;5.28;;;;;;;;;;4994313;28;20525;-71
2022/05/28 12:09:06;;;;;;;13.38;4.88;;;;;;;;;;4994705;28;20477;-72
2022/05/28 12:11:48;;;;;;;9.43;3.97;;;;;;;;;;4993883;28;20082;-72
2022/05/28 12:14:25;;;;;;;11.35;3.83;;;;;;;;;;4977413;28;20049;-71
2022/05/28 12:16:59;;;;;;;33.83;5.35;;;;;;;;;;4992132;28;20070;-73
2022/05/28 12:19:29;;;;;;;18.35;4.13;;;;;;;;;;4994301;28;20043;-71
2022/05/28 12:22:08;;;;;;;28.55;4.50;;;;;;;;;;4993554;28;20054;-74
2022/05/28 12:24:45;;;;;;;18.38;4.47;;;;;;;;;;4993517;28;20141;-74
2022/05/28 12:27:23;;;;;;;17.08;5.20;;;;;;;;;;4993720;28;20083;-76
2022/05/28 12:30:08;;;;;;;37.53;5.18;;;;;;;;;;4994198;28;20485;-73
2022/05/28 12:32:52;;;;;;;24.98;3.80;;;;;;;;;;4993085;28;20054;-71
2022/05/28 12:35:37;;;;;;;20.50;3.88;;;;;;;;;;4992637;28;20053;-73
2022/05/28 12:38:08;;;;;;;18.50;3.95;;;;;;;;;;4992290;28;20046;-68
2022/05/28 12:40:42;;;;;;;13.43;3.25;;;;;;;;;;4993069;28;20125;-65
2022/05/28 12:43:33;;;;;;;17.08;2.70;;;;;;;;;;4992250;28;20124;-65
2022/05/28 12:46:15;;;;;;;18.50;4.05;;;;;;;;;;4992384;28;20665;-64
2022/05/28 12:48:48;;;;;;;10.02;3.25;;;;;;;;;;4991257;28;20074;-65
2022/05/28 12:51:30;;;;;;;18.40;3.20;;;;;;;;;;4991493;28;20074;-63
2022/05/28 12:54:01;;;;;;;;;;;;;;;;;;4992186;28;20042;-64
2022/05/28 12:56:33;;;;;;;13.90;4.15;;;;;;;;;;4991247;28;19921;-64
2022/05/28 12:59:14;;;;;;;6.75;3.40;;;;;;;;;;4992609;28;20508;-67
2022/05/28 13:01:57;;;;;;;14.25;3.67;;;;;;;;;;4990856;28;20042;-65
2022/05/28 13:04:55;;;;;;;17.10;4.40;;;;;;;;;;4992513;28;20042;-65
2022/05/28 13:07:34;;;;;;;18.90;3.22;;;;;;;;;;4989625;28;20468;-65
2022/05/28 13:10:16;;;;;;;20.52;3.97;;;;;;;;;;4992451;28;20038;-64
2022/05/28 13:12:45;;;;;;;13.18;3.95;;;;;;;;;;4990128;28;20085;-64
2022/05/28 13:15:21;;;;;;;14.25;3.22;;;;;;;;;;4991696;28;20133;-67
2022/05/28 13:18:03;;;;;;;11.15;3.55;;;;;;;;;;4974356;28;20046;-67
2022/05/28 13:20:42;;;;;;;15.02;3.63;;;;;;;;;;4992438;28;20043;-66
2022/05/28 13:23:16;;;;;;;37.00;5.07;;;;;;;;;;4991517;28;20567;-66
2022/05/28 13:26:14;;;;;;;16.65;3.90;;;;;;;;;;4991434;28;20050;-66
2022/05/28 13:28:44;;;;;;;27.17;4.07;;;;;;;;;;4989016;28;20120;-67
2022/05/28 13:31:15;;;;;;;26.85;4.22;;;;;;;;;;4989818;28;20104;-67
2022/05/28 13:33:44;;;;;;;14.27;3.35;;;;;;;;;;4990644;28;20096;-66
2022/05/28 13:36:15;;;;;;;12.20;4.50;;;;;;;;;;4990334;28;20054;-66
2022/05/28 13:38:50;;;;;;;11.88;3.45;;;;;;;;;;4991783;28;20055;-67
2022/05/28 13:41:23;;;;;;;19.20;4.55;;;;;;;;;;4972548;28;20050;-66
2022/05/28 13:43:59;;;;;;;12.80;3.88;;;;;;;;;;4992766;28;20053;-63
2022/05/28 13:46:30;;;;;;;14.30;3.95;;;;;;;;;;4974395;28;20417;-65
2022/05/28 13:49:04;;;;;;;14.35;4.15;;;;;;;;;;4995340;28;20058;-63
2022/05/28 13:52:06;;;;;;;8.27;4.28;;;;;;;;;;4993144;28;20493;-65
2022/05/28 13:54:36;;;;;;;7.80;3.05;;;;;;;;;;4994786;28;20169;-64
2022/05/28 13:57:07;;;;;;;8.75;2.90;;;;;;;;;;4994101;28;20050;-64
2022/05/28 13:59:42;;;;;;;16.33;3.80;;;;;;;;;;4994277;28;20506;-64
2022/05/28 14:02:23;;;;;;;21.67;4.47;;;;;;;;;;4994417;28;20050;-64
2022/05/28 14:04:54;;;;;;;11.70;4.78;;;;;;;;;;4995346;28;20046;-63
2022/05/28 14:07:41;;;;;;;10.55;3.40;;;;;;;;;;4994973;28;20054;-63
2022/05/28 14:10:19;;;;;;;18.80;3.92;;;;;;;;;;4995410;28;20585;-63
2022/05/28 14:12:50;;;;;;;15.75;4.72;;;;;;;;;;4995227;28;20050;-67
2022/05/28 14:15:30;;;;;;;17.15;4.40;;;;;;;;;;4996145;28;20046;-67
2022/05/28 14:18:00;;;;;;;12.15;3.70;;;;;;;;;;4996007;28;20078;-67
2022/05/28 14:20:33;;;;;;;12.77;4.38;;;;;;;;;;4975276;28;20074;-67
2022/05/28 14:23:04;;;;;;;;;;;;;;;;;;4994729;28;20101;-68
2022/05/28 14:25:36;;;;;;;9.82;4.85;;;;;;;;;;4993881;28;20285;-68
2022/05/28 14:28:13;;;;;;;10.25;4.97;;;;;;;;;;4993210;28;20466;-67
2022/05/28 14:30:42;;;;;;;10.95;5.43;;;;;;;;;;4969945;28;20054;-68
2022/05/28 14:33:28;;;;;;;10.30;5.25;;;;;;;;;;4993191;28;20066;-67
2022/05/28 14:36:09;;;;;;;10.82;5.25;;;;;;;;;;4992027;28;20053;-64
2022/05/28 14:38:40;;;;;;;11.55;5.25;;;;;;;;;;4993862;28;20047;-64
2022/05/28 14:41:14;;;;;;;13.50;5.05;;;;;;;;;;4994121;28;20053;-64
2022/05/28 14:43:53;;;;;;;16.30;5.22;;;;;;;;;;4991774;28;20053;-65
2022/05/28 14:46:37;;;;;;;17.48;5.20;;;;;;;;;;4975050;28;20050;-66
2022/05/28 14:49:08;;;;;;;17.98;5.80;;;;;;;;;;4992128;28;20055;-65
2022/05/28 14:51:40;;;;;;;17.60;5.50;;;;;;;;;;4977138;28;20065;-66
2022/05/28 14:54:31;;;;;;;17.00;6.00;;;;;;;;;;4974332;28;20054;-66
2022/05/28 14:57:03;;;;;;;14.75;5.28;;;;;;;;;;4992331;28;20039;-66
2022/05/28 14:59:42;;;;;;;14.40;7.47;;;;;;;;;;4977362;28;20057;-66
2022/05/28 15:02:17;;;;;;;14.82;6.03;;;;;;;;;;4996074;28;20046;-65
2022/05/28 15:04:46;;;;;;;14.43;5.90;;;;;;;;;;4993912;28;20050;-66
2022/05/28 15:07:25;;;;;;;15.70;6.65;;;;;;;;;;4993514;28;20053;-66
2022/05/28 15:10:02;;;;;;;12.60;6.32;;;;;;;;;;4979354;28;20070;-66
2022/05/28 15:12:36;;;;;;;22.35;6.65;;;;;;;;;;4977787;28;20062;-66
2022/05/28 15:15:09;;;;;;;15.63;6.68;;;;;;;;;;4995317;28;20062;-68
2022/05/28 15:17:38;;;;;;;17.52;6.30;;;;;;;;;;4994491;28;20054;-66
2022/05/28 15:20:09;;;;;;;18.52;5.78;;;;;;;;;;4994410;28;20046;-67
2022/05/28 15:22:38;;;;;;;13.75;5.50;;;;;;;;;;4994781;28;20050;-66
2022/05/28 15:25:10;;;;;;;20.70;6.50;;;;;;;;;;4994273;28;20054;-67
2022/05/28 15:27:40;;;;;;;16.38;6.38;;;;;;;;;;4994594;28;20065;-68